Time;durP1;ratioP1;P1;durP2;ratioP2;P2;SDS_P1;SDS_P2;PMS_P1;PMS_P2;Temp;Humidity;BMP_temperature;BMP_pressure;BME280_temperature;BME280_humidity;BME280_pressure;Samples;Min_cycle;Max_cycle;Signal;HPM_P1;HPM_P2
2021/12/11 00:00:44;;;;;;;55.33;22.02;;;;;;;;;;5015305;28;20537;-61
2021/12/11 00:03:14;;;;;;;47.20;20.17;;;;;;;;;;5015862;28;20022;-62
2021/12/11 00:05:41;;;;;;;50.53;22.40;;;;;;;;;;5015474;28;20026;-62
2021/12/11 00:08:10;;;;;;;46.22;20.10;;;;;;;;;;5014890;28;20030;-60
2021/12/11 00:10:45;;;;;;;60.53;21.85;;;;;;;;;;5015763;28;20110;-61
2021/12/11 00:13:16;;;;;;;46.38;17.90;;;;;;;;;;5015993;28;20370;-62
2021/12/11 00:15:43;;;;;;;43.88;19.98;;;;;;;;;;5015920;28;20023;-62
2021/12/11 00:18:14;;;;;;;41.85;18.83;;;;;;;;;;5015481;28;20022;-62
2021/12/11 00:20:44;;;;;;;40.70;17.87;;;;;;;;;;5015300;28;20560;-61
2021/12/11 00:23:10;;;;;;;34.20;16.45;;;;;;;;;;5015372;28;20715;-63
2021/12/11 00:25:45;;;;;;;38.38;17.63;;;;;;;;;;5015378;28;20026;-61
2021/12/11 00:28:12;;;;;;;38.80;16.55;;;;;;;;;;5015434;28;20030;-61
2021/12/11 00:30:40;;;;;;;38.92;17.30;;;;;;;;;;5015347;28;20037;-62
2021/12/11 00:33:10;;;;;;;41.30;17.10;;;;;;;;;;5015233;28;20024;-62
2021/12/11 00:35:37;;;;;;;39.90;16.02;;;;;;;;;;5015185;28;20049;-61
2021/12/11 00:38:04;;;;;;;38.10;17.80;;;;;;;;;;5015149;28;20029;-62
2021/12/11 00:40:31;;;;;;;44.15;18.00;;;;;;;;;;5015146;28;20041;-63
2021/12/11 00:43:02;;;;;;;44.88;19.63;;;;;;;;;;5015055;28;20041;-62
2021/12/11 00:45:31;;;;;;;52.10;20.52;;;;;;;;;;5014341;28;20025;-63
2021/12/11 00:48:00;;;;;;;49.35;18.83;;;;;;;;;;5015449;28;20026;-62
2021/12/11 00:50:28;;;;;;;49.08;19.88;;;;;;;;;;5014781;28;20037;-62
2021/12/11 00:52:56;;;;;;;45.47;19.90;;;;;;;;;;5015077;28;20029;-62
2021/12/11 00:55:22;;;;;;;40.78;17.58;;;;;;;;;;5014460;28;20025;-62
2021/12/11 00:57:49;;;;;;;39.85;18.17;;;;;;;;;;5014720;28;20380;-63
2021/12/11 01:00:20;;;;;;;47.30;20.55;;;;;;;;;;5014770;28;20474;-63
2021/12/11 01:02:50;;;;;;;41.60;17.83;;;;;;;;;;5015010;28;20436;-63
2021/12/11 01:05:16;;;;;;;39.17;16.85;;;;;;;;;;5015427;28;20034;-63
2021/12/11 01:07:43;;;;;;;38.88;16.23;;;;;;;;;;5014831;28;20026;-62
2021/12/11 01:10:09;;;;;;;32.88;15.20;;;;;;;;;;5014354;28;20033;-62
2021/12/11 01:12:44;;;;;;;38.63;15.35;;;;;;;;;;5014837;28;20106;-62
2021/12/11 01:15:14;;;;;;;113.68;38.28;;;;;;;;;;5014735;28;20092;-62
2021/12/11 01:18:22;;;;;;;133.10;47.63;;;;;;;;;;5014415;28;20482;-62
2021/12/11 01:21:00;;;;;;;154.90;57.03;;;;;;;;;;5013957;28;20046;-62
2021/12/11 01:26:01;;;;;;;63.67;24.90;;;;;;;;;;5014663;28;20034;-63
2021/12/11 01:28:27;;;;;;;34.55;17.10;;;;;;;;;;5013324;28;20482;-62
2021/12/11 01:30:54;;;;;;;42.95;18.67;;;;;;;;;;5013956;28;20037;-62
2021/12/11 01:33:20;;;;;;;32.42;15.40;;;;;;;;;;5014479;28;20040;-63
2021/12/11 01:35:48;;;;;;;41.90;16.38;;;;;;;;;;5013574;28;20030;-62
2021/12/11 01:38:16;;;;;;;36.67;17.30;;;;;;;;;;5014107;28;20076;-62
2021/12/11 01:40:45;;;;;;;44.50;18.85;;;;;;;;;;5014260;28;20042;-60
2021/12/11 01:43:11;;;;;;;39.95;18.63;;;;;;;;;;5014208;28;20479;-61
2021/12/11 01:45:41;;;;;;;40.65;16.98;;;;;;;;;;5014070;28;20054;-61
2021/12/11 01:48:07;;;;;;;42.95;18.30;;;;;;;;;;5013886;28;20026;-61
2021/12/11 01:50:36;;;;;;;36.70;17.90;;;;;;;;;;5014168;28;20025;-62
2021/12/11 01:53:06;;;;;;;32.85;16.58;;;;;;;;;;5013657;28;20030;-60
2021/12/11 01:55:35;;;;;;;41.53;18.90;;;;;;;;;;5013742;28;20025;-62
2021/12/11 01:58:04;;;;;;;27.65;14.13;;;;;;;;;;5014246;28;20018;-62
2021/12/11 02:00:33;;;;;;;34.90;15.75;;;;;;;;;;5013430;28;20030;-61
2021/12/11 02:03:00;;;;;;;36.90;16.45;;;;;;;;;;5013543;28;20375;-63
2021/12/11 02:05:29;;;;;;;39.03;17.52;;;;;;;;;;5013894;28;20028;-62
2021/12/11 02:07:57;;;;;;;39.10;17.88;;;;;;;;;;5013822;28;20056;-62
2021/12/11 02:10:26;;;;;;;42.95;18.30;;;;;;;;;;5013699;28;20026;-61
2021/12/11 02:12:53;;;;;;;34.78;17.33;;;;;;;;;;5013793;28;20102;-62
2021/12/11 02:15:26;;;;;;;36.90;18.50;;;;;;;;;;5013640;28;20026;-62
2021/12/11 02:18:00;;;;;;;45.25;18.27;;;;;;;;;;5013877;28;20108;-62
2021/12/11 02:20:31;;;;;;;35.15;16.33;;;;;;;;;;5013164;28;20041;-62
2021/12/11 02:22:57;;;;;;;41.08;18.42;;;;;;;;;;5013922;28;20030;-62
2021/12/11 02:25:25;;;;;;;36.70;19.20;;;;;;;;;;5013820;28;20026;-61
2021/12/11 02:28:14;;;;;;;42.25;19.38;;;;;;;;;;5013176;28;20390;-61
2021/12/11 02:30:46;;;;;;;39.35;17.58;;;;;;;;;;5010611;28;20038;-62
2021/12/11 02:33:27;;;;;;;35.30;17.42;;;;;;;;;;5012676;28;20076;-62
2021/12/11 02:36:12;;;;;;;36.60;17.45;;;;;;;;;;5014291;28;20026;-62
2021/12/11 02:38:43;;;;;;;33.88;15.98;;;;;;;;;;5012524;28;20431;-60
2021/12/11 02:41:27;;;;;;;33.55;15.50;;;;;;;;;;5013176;28;20053;-62
2021/12/11 02:43:55;;;;;;;37.92;16.50;;;;;;;;;;5013672;28;20463;-61
2021/12/11 02:46:21;;;;;;;30.63;13.38;;;;;;;;;;5013610;28;20022;-61
2021/12/11 02:48:53;;;;;;;27.92;14.85;;;;;;;;;;5013026;28;20105;-61
2021/12/11 02:51:23;;;;;;;45.38;20.63;;;;;;;;;;5014025;28;20041;-60
2021/12/11 02:53:52;;;;;;;37.13;17.88;;;;;;;;;;5013498;28;20072;-61
2021/12/11 02:56:21;;;;;;;38.30;18.63;;;;;;;;;;5013035;28;20386;-61
2021/12/11 02:58:49;;;;;;;43.40;19.75;;;;;;;;;;5013233;28;20373;-61
2021/12/11 03:01:24;;;;;;;45.05;21.00;;;;;;;;;;5013105;28;20061;-60
2021/12/11 03:03:56;;;;;;;44.42;19.98;;;;;;;;;;5012990;28;20046;-61
2021/12/11 03:06:25;;;;;;;45.05;21.33;;;;;;;;;;5013100;28;20502;-61
2021/12/11 03:08:53;;;;;;;35.72;17.02;;;;;;;;;;5016275;28;20021;-63
2021/12/11 03:11:21;;;;;;;37.55;17.95;;;;;;;;;;5016837;28;20030;-60
2021/12/11 03:13:51;;;;;;;46.00;20.02;;;;;;;;;;5017370;28;20310;-61
2021/12/11 03:16:19;;;;;;;43.65;19.17;;;;;;;;;;5016924;28;20430;-62
2021/12/11 03:18:46;;;;;;;38.15;17.77;;;;;;;;;;5017225;28;20101;-62
2021/12/11 03:21:12;;;;;;;42.78;18.00;;;;;;;;;;5016519;28;20155;-61
2021/12/11 03:23:39;;;;;;;40.35;18.17;;;;;;;;;;5015353;28;20374;-61
2021/12/11 03:26:05;;;;;;;43.08;18.45;;;;;;;;;;5016907;28;20026;-62
2021/12/11 03:28:31;;;;;;;49.95;23.40;;;;;;;;;;5017064;28;20021;-61
2021/12/11 03:30:59;;;;;;;44.65;20.67;;;;;;;;;;5016063;28;20032;-61
2021/12/11 03:33:31;;;;;;;39.80;18.63;;;;;;;;;;5016347;28;20026;-62
2021/12/11 03:35:57;;;;;;;;;;;;;;;;;;5016986;28;20378;-62
2021/12/11 03:38:25;;;;;;;36.08;17.00;;;;;;;;;;5016048;28;19906;-61
2021/12/11 03:40:51;;;;;;;30.63;16.35;;;;;;;;;;5016251;28;20108;-62
2021/12/11 03:43:19;;;;;;;38.95;17.92;;;;;;;;;;5015865;28;20038;-62
2021/12/11 03:45:47;;;;;;;33.58;17.40;;;;;;;;;;5016358;28;20050;-62
2021/12/11 03:48:15;;;;;;;47.25;22.45;;;;;;;;;;5016416;28;20109;-62
2021/12/11 03:50:42;;;;;;;45.53;20.00;;;;;;;;;;5016104;28;20022;-62
2021/12/11 03:53:09;;;;;;;38.80;17.73;;;;;;;;;;5016320;28;20466;-62
2021/12/11 03:55:39;;;;;;;44.88;21.30;;;;;;;;;;5016553;28;20018;-62
2021/12/11 03:58:07;;;;;;;42.60;20.15;;;;;;;;;;5016131;28;20022;-61
2021/12/11 04:00:40;;;;;;;42.08;20.38;;;;;;;;;;5016085;28;20037;-60
2021/12/11 04:03:07;;;;;;;48.20;21.23;;;;;;;;;;5016204;28;20415;-61
2021/12/11 04:05:38;;;;;;;39.55;18.95;;;;;;;;;;5016023;28;20374;-62
2021/12/11 04:08:06;;;;;;;46.72;20.98;;;;;;;;;;5016074;28;20026;-61
2021/12/11 04:10:32;;;;;;;48.08;22.42;;;;;;;;;;5015756;28;20497;-62
2021/12/11 04:13:00;;;;;;;50.70;20.33;;;;;;;;;;5015732;28;20026;-61
2021/12/11 04:15:26;;;;;;;50.63;20.98;;;;;;;;;;5015898;28;20022;-61
2021/12/11 04:17:54;;;;;;;52.35;22.33;;;;;;;;;;5015854;28;20080;-63
2021/12/11 04:20:21;;;;;;;57.83;23.27;;;;;;;;;;5015207;28;20034;-62
2021/12/11 04:22:48;;;;;;;51.15;21.80;;;;;;;;;;5016186;28;20022;-62
2021/12/11 04:25:15;;;;;;;58.72;24.67;;;;;;;;;;5015069;28;20021;-61
2021/12/11 04:27:41;;;;;;;70.50;30.17;;;;;;;;;;5015575;28;20076;-62
2021/12/11 04:30:09;;;;;;;42.53;19.15;;;;;;;;;;5015316;28;20538;-62
2021/12/11 04:32:36;;;;;;;172.32;53.88;;;;;;;;;;5015016;28;20028;-62
2021/12/11 04:35:03;;;;;;;146.52;48.78;;;;;;;;;;5015531;28;20363;-62
2021/12/11 04:37:32;;;;;;;29.83;13.70;;;;;;;;;;5015473;28;20371;-61
2021/12/11 04:40:03;;;;;;;116.32;41.03;;;;;;;;;;5015124;28;20026;-62
2021/12/11 04:45:16;;;;;;;28.58;11.82;;;;;;;;;;5015082;28;20015;-63
2021/12/11 04:47:53;;;;;;;169.15;59.13;;;;;;;;;;5014986;28;20352;-61
2021/12/11 04:50:29;;;;;;;14.75;7.45;;;;;;;;;;5015808;28;20117;-63
2021/12/11 04:52:55;;;;;;;16.80;8.20;;;;;;;;;;5015168;28;20018;-61
2021/12/11 05:00:47;;;;;;;;;;;;;;;;;;5015230;28;20034;-62
2021/12/11 05:05:55;;;;;;;33.63;14.32;;;;;;;;;;5014765;28;20041;-62
2021/12/11 05:11:00;;;;;;;26.60;12.52;;;;;;;;;;5014894;28;20034;-62
2021/12/11 05:13:28;;;;;;;14.63;7.47;;;;;;;;;;5014879;28;20030;-62
2021/12/11 05:15:56;;;;;;;21.50;9.65;;;;;;;;;;5014203;28;20110;-62
2021/12/11 05:18:24;;;;;;;13.38;4.97;;;;;;;;;;5014561;28;20075;-62
2021/12/11 05:20:52;;;;;;;48.53;25.20;;;;;;;;;;5014341;28;20397;-62
2021/12/11 05:23:19;;;;;;;61.90;35.80;;;;;;;;;;5014319;28;20108;-62
2021/12/11 05:25:45;;;;;;;26.10;15.05;;;;;;;;;;5015115;28;20033;-61
2021/12/11 05:28:12;;;;;;;20.02;11.10;;;;;;;;;;5014511;28;20097;-63
2021/12/11 05:30:40;;;;;;;17.05;8.95;;;;;;;;;;5014129;28;20105;-63
2021/12/11 05:33:07;;;;;;;18.27;8.27;;;;;;;;;;5013775;28;20528;-62
2021/12/11 05:35:34;;;;;;;18.75;9.30;;;;;;;;;;5014183;28;20071;-63
2021/12/11 05:38:01;;;;;;;20.88;9.98;;;;;;;;;;5014294;28;20021;-62
2021/12/11 05:40:28;;;;;;;20.83;10.27;;;;;;;;;;5014097;28;20421;-62
2021/12/11 05:42:54;;;;;;;9.23;5.18;;;;;;;;;;5014067;28;20383;-63
2021/12/11 05:45:21;;;;;;;8.48;3.75;;;;;;;;;;5014048;28;20049;-63
2021/12/11 05:47:48;;;;;;;6.28;2.72;;;;;;;;;;5013966;28;20072;-62
2021/12/11 05:50:17;;;;;;;4.90;2.30;;;;;;;;;;5010852;28;20026;-61
2021/12/11 05:52:44;;;;;;;4.85;2.53;;;;;;;;;;5003227;28;20022;-62
2021/12/11 05:55:15;;;;;;;3.65;2.00;;;;;;;;;;4994458;28;20034;-61
2021/12/11 05:57:49;;;;;;;4.78;1.92;;;;;;;;;;5001766;28;20066;-60
2021/12/11 06:00:16;;;;;;;3.95;2.10;;;;;;;;;;5004715;28;20379;-61
2021/12/11 06:02:42;;;;;;;2.90;1.90;;;;;;;;;;5003196;28;20352;-61
2021/12/11 06:05:08;;;;;;;6.38;2.08;;;;;;;;;;5003041;28;20050;-60
2021/12/11 06:07:35;;;;;;;5.20;1.83;;;;;;;;;;5002275;28;20026;-60
2021/12/11 06:10:08;;;;;;;6.50;2.90;;;;;;;;;;4995899;28;20444;-61
2021/12/11 06:12:35;;;;;;;5.18;2.72;;;;;;;;;;4994913;28;20022;-62
2021/12/11 06:15:01;;;;;;;15.13;4.80;;;;;;;;;;4994196;28;20045;-61
2021/12/11 06:17:29;;;;;;;6.88;3.35;;;;;;;;;;5003189;28;20493;-61
2021/12/11 06:19:56;;;;;;;6.00;3.10;;;;;;;;;;5012333;28;20010;-61
2021/12/11 06:22:28;;;;;;;5.43;3.70;;;;;;;;;;5013292;28;20463;-62
2021/12/11 06:24:56;;;;;;;6.60;3.28;;;;;;;;;;5001239;28;20466;-62
2021/12/11 06:27:22;;;;;;;5.45;2.88;;;;;;;;;;4995993;28;20026;-60
2021/12/11 06:29:49;;;;;;;7.43;3.90;;;;;;;;;;5001035;28;20037;-62
2021/12/11 06:32:15;;;;;;;5.63;3.03;;;;;;;;;;5013414;28;20022;-62
2021/12/11 06:34:41;;;;;;;4.18;2.60;;;;;;;;;;5013700;28;20018;-62
2021/12/11 06:37:20;;;;;;;4.60;2.50;;;;;;;;;;5009869;28;20018;-65
2021/12/11 06:39:51;;;;;;;4.03;2.78;;;;;;;;;;5013207;28;20451;-64
2021/12/11 06:42:19;;;;;;;5.95;2.72;;;;;;;;;;5012195;28;20069;-62
2021/12/11 06:44:48;;;;;;;4.63;2.45;;;;;;;;;;5016006;28;20026;-61
2021/12/11 06:47:15;;;;;;;5.40;3.03;;;;;;;;;;5015375;28;20447;-66
2021/12/11 06:49:48;;;;;;;7.22;2.80;;;;;;;;;;5016153;28;20025;-63
2021/12/11 06:52:24;;;;;;;9.55;3.53;;;;;;;;;;5016012;28;20500;-63
2021/12/11 06:55:00;;;;;;;10.52;5.78;;;;;;;;;;5016342;28;20022;-63
2021/12/11 06:57:26;;;;;;;6.45;3.08;;;;;;;;;;5015596;28;20022;-62
2021/12/11 06:59:53;;;;;;;6.25;3.28;;;;;;;;;;5015300;28;20033;-64
2021/12/11 07:02:20;;;;;;;4.05;2.15;;;;;;;;;;5016172;28;20466;-63
2021/12/11 07:04:47;;;;;;;6.70;3.17;;;;;;;;;;5015995;28;20049;-63
2021/12/11 07:07:20;;;;;;;5.20;2.55;;;;;;;;;;5015644;28;20481;-62
2021/12/11 07:09:46;;;;;;;28.77;11.57;;;;;;;;;;5016449;28;20065;-61
2021/12/11 07:12:12;;;;;;;8.50;3.90;;;;;;;;;;5016363;28;20022;-62
2021/12/11 07:14:39;;;;;;;11.70;5.07;;;;;;;;;;5016409;28;20014;-62
2021/12/11 07:17:05;;;;;;;7.22;4.32;;;;;;;;;;5016916;28;20083;-63
2021/12/11 07:19:31;;;;;;;12.63;4.43;;;;;;;;;;5016365;28;20064;-62
2021/12/11 07:21:58;;;;;;;13.60;5.82;;;;;;;;;;5015432;28;20398;-64
2021/12/11 07:24:29;;;;;;;7.65;4.22;;;;;;;;;;5016382;28;20026;-62
2021/12/11 07:26:55;;;;;;;9.68;4.57;;;;;;;;;;5016785;28;20014;-63
2021/12/11 07:29:22;;;;;;;28.63;12.38;;;;;;;;;;5016394;28;20030;-62
2021/12/11 07:31:49;;;;;;;10.68;5.57;;;;;;;;;;5016733;28;20033;-62
2021/12/11 07:34:16;;;;;;;18.15;8.02;;;;;;;;;;5015241;28;20026;-63
2021/12/11 07:36:42;;;;;;;7.88;4.25;;;;;;;;;;5004087;28;20022;-63
2021/12/11 07:39:10;;;;;;;9.80;4.70;;;;;;;;;;4996791;28;20034;-62
2021/12/11 07:41:37;;;;;;;10.38;5.78;;;;;;;;;;4995227;28;20037;-64
2021/12/11 07:44:03;;;;;;;57.53;21.83;;;;;;;;;;4995288;28;20523;-63
2021/12/11 07:46:30;;;;;;;9.48;5.15;;;;;;;;;;4996815;28;20027;-62
2021/12/11 07:48:57;;;;;;;9.13;4.18;;;;;;;;;;4996526;28;20093;-60
2021/12/11 07:51:25;;;;;;;9.45;4.95;;;;;;;;;;4996693;28;20398;-62
2021/12/11 07:53:51;;;;;;;10.98;6.97;;;;;;;;;;4996253;28;20023;-63
2021/12/11 07:56:24;;;;;;;10.55;5.07;;;;;;;;;;4996260;28;20049;-64
2021/12/11 07:58:52;;;;;;;17.95;7.43;;;;;;;;;;4996430;28;20387;-62
2021/12/11 08:01:19;;;;;;;12.60;6.50;;;;;;;;;;4996441;28;20046;-63
2021/12/11 08:03:49;;;;;;;59.33;26.65;;;;;;;;;;4996035;28;20049;-63
2021/12/11 08:06:18;;;;;;;;;;;;;;;;;;4996503;28;20400;-63
2021/12/11 08:08:46;;;;;;;19.67;8.43;;;;;;;;;;4996069;28;19906;-62
2021/12/11 08:11:20;;;;;;;11.35;6.15;;;;;;;;;;4995732;28;20037;-63
2021/12/11 08:13:52;;;;;;;46.70;19.50;;;;;;;;;;4996060;28;20030;-63
2021/12/11 08:16:24;;;;;;;43.35;17.80;;;;;;;;;;4995693;28;20022;-63
2021/12/11 08:18:52;;;;;;;9.10;5.17;;;;;;;;;;4995929;28;20027;-62
2021/12/11 08:21:19;;;;;;;8.10;4.65;;;;;;;;;;4995719;28;20031;-61
2021/12/11 08:23:47;;;;;;;11.18;6.55;;;;;;;;;;4994260;28;20061;-63
2021/12/11 08:26:16;;;;;;;17.52;7.50;;;;;;;;;;4994264;28;20371;-60
2021/12/11 08:28:43;;;;;;;6.15;3.58;;;;;;;;;;4996116;28;20360;-61
2021/12/11 08:31:09;;;;;;;36.92;18.02;;;;;;;;;;4995703;28;20027;-64
2021/12/11 08:33:35;;;;;;;47.30;20.77;;;;;;;;;;4994789;28;20498;-61
2021/12/11 08:36:02;;;;;;;24.77;10.57;;;;;;;;;;4995633;28;20068;-61
2021/12/11 08:38:28;;;;;;;7.38;4.90;;;;;;;;;;4995532;28;20117;-63
2021/12/11 08:40:56;;;;;;;8.23;4.15;;;;;;;;;;4996158;28;20042;-64
2021/12/11 08:43:22;;;;;;;32.03;14.57;;;;;;;;;;4995731;28;20026;-62
2021/12/11 08:46:00;;;;;;;23.77;10.68;;;;;;;;;;4994692;28;20395;-62
2021/12/11 08:48:27;;;;;;;15.57;6.88;;;;;;;;;;4995738;28;20022;-62
2021/12/11 08:50:58;;;;;;;20.33;8.23;;;;;;;;;;4995972;28;20030;-62
2021/12/11 08:53:24;;;;;;;16.20;8.43;;;;;;;;;;4995271;28;20030;-62
2021/12/11 08:55:54;;;;;;;15.20;8.13;;;;;;;;;;4995385;28;20018;-61
2021/12/11 08:58:21;;;;;;;30.58;13.75;;;;;;;;;;4994874;28;20081;-62
2021/12/11 09:01:02;;;;;;;26.98;11.30;;;;;;;;;;4995416;28;20022;-62
2021/12/11 09:03:33;;;;;;;17.95;8.98;;;;;;;;;;4995297;28;20415;-62
2021/12/11 09:06:05;;;;;;;22.15;11.07;;;;;;;;;;4994415;28;20023;-63
2021/12/11 09:08:31;;;;;;;22.15;9.52;;;;;;;;;;4995135;28;20374;-61
2021/12/11 09:10:59;;;;;;;53.80;27.02;;;;;;;;;;4994979;28;20121;-63
2021/12/11 09:13:47;;;;;;;34.45;16.83;;;;;;;;;;4994791;28;20023;-62
2021/12/11 09:16:16;;;;;;;17.23;8.07;;;;;;;;;;4994963;28;20029;-62
2021/12/11 09:18:46;;;;;;;27.48;14.13;;;;;;;;;;4994648;28;20105;-63
2021/12/11 09:21:20;;;;;;;16.45;8.98;;;;;;;;;;4994971;28;20041;-63
2021/12/11 09:23:54;;;;;;;19.80;10.48;;;;;;;;;;4995237;28;20014;-63
2021/12/11 09:26:25;;;;;;;17.25;10.00;;;;;;;;;;4993629;28;20106;-63
2021/12/11 09:29:04;;;;;;;29.33;16.65;;;;;;;;;;4994990;28;20375;-63
2021/12/11 09:31:32;;;;;;;16.92;9.45;;;;;;;;;;4994564;28;20026;-60
2021/12/11 09:34:12;;;;;;;19.05;9.63;;;;;;;;;;4993668;28;20351;-61
2021/12/11 09:36:40;;;;;;;23.35;12.15;;;;;;;;;;4994802;28;20089;-63
2021/12/11 09:39:09;;;;;;;21.10;12.27;;;;;;;;;;4994496;28;20057;-62
2021/12/11 09:41:36;;;;;;;23.05;11.38;;;;;;;;;;4993742;28;20031;-62
2021/12/11 09:44:15;;;;;;;13.98;7.60;;;;;;;;;;4993663;28;20015;-61
2021/12/11 09:46:41;;;;;;;14.88;7.13;;;;;;;;;;4994408;28;20117;-61
2021/12/11 09:49:10;;;;;;;19.63;9.32;;;;;;;;;;4994382;28;20025;-60
2021/12/11 09:51:40;;;;;;;22.15;11.88;;;;;;;;;;4994036;28;20479;-61
2021/12/11 09:54:21;;;;;;;18.27;9.93;;;;;;;;;;4994639;28;20027;-62
2021/12/11 09:56:50;;;;;;;11.05;5.85;;;;;;;;;;4994585;28;20026;-62
2021/12/11 09:59:18;;;;;;;11.98;6.32;;;;;;;;;;4994608;28;20084;-62
2021/12/11 10:01:45;;;;;;;19.25;9.88;;;;;;;;;;4993771;28;20022;-62
2021/12/11 10:04:20;;;;;;;22.88;9.45;;;;;;;;;;4994397;28;20392;-64
2021/12/11 10:07:13;;;;;;;27.23;12.40;;;;;;;;;;4994038;28;20018;-62
2021/12/11 10:09:45;;;;;;;19.10;10.40;;;;;;;;;;4993811;28;20109;-61
2021/12/11 10:12:30;;;;;;;17.58;9.80;;;;;;;;;;4994215;28;20084;-62
2021/12/11 10:15:09;;;;;;;13.05;8.25;;;;;;;;;;4994640;28;20026;-61
2021/12/11 10:17:40;;;;;;;15.93;9.07;;;;;;;;;;4994251;28;20050;-61
2021/12/11 10:20:10;;;;;;;13.10;7.32;;;;;;;;;;4994251;28;20034;-63
2021/12/11 10:22:38;;;;;;;13.23;7.53;;;;;;;;;;4994115;28;20027;-62
2021/12/11 10:25:06;;;;;;;17.05;9.45;;;;;;;;;;4994168;28;20029;-61
2021/12/11 10:27:32;;;;;;;12.68;7.32;;;;;;;;;;5009199;28;20041;-62
2021/12/11 10:30:00;;;;;;;9.48;5.60;;;;;;;;;;4992914;28;20502;-62
2021/12/11 10:32:30;;;;;;;10.85;6.00;;;;;;;;;;4994407;28;20367;-62
2021/12/11 10:34:58;;;;;;;8.40;5.22;;;;;;;;;;4993088;28;20023;-62
2021/12/11 10:37:33;;;;;;;7.65;4.18;;;;;;;;;;4993829;28;20479;-60
2021/12/11 10:40:00;;;;;;;8.90;4.63;;;;;;;;;;4994053;28;20065;-60
2021/12/11 10:42:27;;;;;;;8.40;3.80;;;;;;;;;;4993828;28;20037;-62
2021/12/11 10:44:55;;;;;;;7.82;4.07;;;;;;;;;;5009102;28;20366;-62
2021/12/11 10:47:23;;;;;;;10.25;5.47;;;;;;;;;;4993612;28;20113;-61
2021/12/11 10:49:50;;;;;;;10.05;5.47;;;;;;;;;;4993960;28;20018;-61
2021/12/11 10:52:19;;;;;;;11.00;5.68;;;;;;;;;;4993352;28;20161;-61
2021/12/11 10:54:46;;;;;;;19.75;11.05;;;;;;;;;;4994325;28;20033;-62
2021/12/11 10:57:13;;;;;;;9.38;5.30;;;;;;;;;;4993436;28;20022;-63
2021/12/11 10:59:40;;;;;;;11.25;5.95;;;;;;;;;;4993816;28;20030;-64
2021/12/11 11:02:10;;;;;;;13.55;7.55;;;;;;;;;;4993599;28;20475;-62
2021/12/11 11:04:51;;;;;;;12.85;7.32;;;;;;;;;;4993297;28;20534;-61
2021/12/11 11:07:17;;;;;;;10.93;7.20;;;;;;;;;;4993753;28;20054;-61
2021/12/11 11:09:44;;;;;;;12.25;6.65;;;;;;;;;;4993288;28;20018;-63
2021/12/11 11:12:12;;;;;;;9.00;4.60;;;;;;;;;;4992532;28;20084;-62
2021/12/11 11:14:39;;;;;;;28.20;13.23;;;;;;;;;;4993188;28;20022;-62
2021/12/11 11:17:08;;;;;;;28.25;13.35;;;;;;;;;;4992996;28;20026;-62
2021/12/11 11:19:38;;;;;;;21.73;11.85;;;;;;;;;;4991589;28;20027;-63
2021/12/11 11:22:07;;;;;;;21.70;12.02;;;;;;;;;;4991610;28;20132;-63
2021/12/11 11:24:36;;;;;;;20.00;10.15;;;;;;;;;;4991884;28;20075;-62
2021/12/11 11:27:03;;;;;;;24.50;11.80;;;;;;;;;;4993241;28;20076;-62
2021/12/11 11:29:30;;;;;;;17.08;8.48;;;;;;;;;;4994734;28;20036;-61
2021/12/11 11:32:01;;;;;;;10.38;5.70;;;;;;;;;;4997182;28;20018;-62
2021/12/11 11:34:28;;;;;;;14.88;7.65;;;;;;;;;;4996745;28;20038;-61
2021/12/11 11:36:56;;;;;;;18.00;7.88;;;;;;;;;;4996694;28;20030;-62
2021/12/11 11:39:23;;;;;;;13.40;8.10;;;;;;;;;;4996873;28;20535;-62
2021/12/11 11:41:54;;;;;;;17.27;8.45;;;;;;;;;;4996609;28;20114;-62
2021/12/11 11:44:21;;;;;;;15.75;8.30;;;;;;;;;;4996174;28;20029;-62
2021/12/11 11:46:48;;;;;;;17.45;8.73;;;;;;;;;;4996264;28;20040;-62
2021/12/11 11:49:15;;;;;;;19.58;8.38;;;;;;;;;;4995972;28;20032;-62
2021/12/11 11:52:05;;;;;;;15.23;7.65;;;;;;;;;;4996732;28;20158;-62
2021/12/11 11:54:34;;;;;;;16.88;7.55;;;;;;;;;;4996077;28;20379;-63
2021/12/11 11:57:07;;;;;;;12.13;7.70;;;;;;;;;;4995865;28;20029;-62
2021/12/11 11:59:34;;;;;;;14.68;8.18;;;;;;;;;;4995280;28;20451;-62
2021/12/11 12:02:03;;;;;;;11.07;6.22;;;;;;;;;;4996005;28;20037;-62
2021/12/11 12:04:30;;;;;;;12.20;6.10;;;;;;;;;;4996310;28;20046;-62
2021/12/11 12:07:00;;;;;;;12.38;6.28;;;;;;;;;;4996171;28;20356;-62
2021/12/11 12:09:27;;;;;;;16.15;7.47;;;;;;;;;;4996151;28;20030;-62
2021/12/11 12:11:54;;;;;;;21.67;9.40;;;;;;;;;;4996410;28;20038;-63
2021/12/11 12:14:22;;;;;;;19.52;8.93;;;;;;;;;;4995728;28;20113;-63
2021/12/11 12:16:49;;;;;;;21.85;10.43;;;;;;;;;;4996053;28;20467;-63
2021/12/11 12:19:16;;;;;;;19.30;10.93;;;;;;;;;;4996278;28;20027;-62
2021/12/11 12:21:43;;;;;;;19.58;10.15;;;;;;;;;;4995916;28;20467;-62
2021/12/11 12:24:10;;;;;;;20.83;12.05;;;;;;;;;;4996232;28;20022;-62
2021/12/11 12:26:37;;;;;;;20.50;9.63;;;;;;;;;;4995989;28;20116;-62
2021/12/11 12:29:04;;;;;;;24.70;11.32;;;;;;;;;;4995502;28;20018;-62
2021/12/11 12:31:33;;;;;;;29.98;14.45;;;;;;;;;;4995704;28;20122;-62
2021/12/11 12:34:00;;;;;;;28.40;13.10;;;;;;;;;;4995741;28;20038;-63
2021/12/11 12:36:26;;;;;;;32.75;16.42;;;;;;;;;;4995703;28;20029;-60
2021/12/11 12:38:53;;;;;;;30.42;15.43;;;;;;;;;;4995600;28;20101;-63
2021/12/11 12:41:32;;;;;;;32.85;16.88;;;;;;;;;;4994442;28;20084;-63
2021/12/11 12:46:35;;;;;;;45.05;19.20;;;;;;;;;;4995687;28;20521;-63
2021/12/11 12:49:06;;;;;;;31.48;15.80;;;;;;;;;;4995267;28;20102;-65
2021/12/11 12:51:33;;;;;;;22.70;12.38;;;;;;;;;;4994680;28;20080;-62
2021/12/11 12:54:02;;;;;;;21.00;11.60;;;;;;;;;;4994944;28;20544;-63
2021/12/11 12:56:29;;;;;;;27.63;12.98;;;;;;;;;;4995317;28;20042;-62
2021/12/11 12:59:06;;;;;;;16.20;9.82;;;;;;;;;;4995314;28;20102;-66
2021/12/11 13:01:46;;;;;;;25.55;12.48;;;;;;;;;;4995918;28;20553;-65
2021/12/11 13:04:15;;;;;;;47.10;20.90;;;;;;;;;;4995236;28;20133;-62
2021/12/11 13:06:51;;;;;;;20.73;11.05;;;;;;;;;;4994916;28;20034;-67
2021/12/11 13:09:30;;;;;;;12.80;7.28;;;;;;;;;;4995103;28;20365;-62
2021/12/11 13:11:56;;;;;;;14.27;7.95;;;;;;;;;;4994955;28;20117;-61
2021/12/11 13:14:22;;;;;;;66.15;31.17;;;;;;;;;;4995135;28;20022;-63
2021/12/11 13:16:54;;;;;;;43.80;22.88;;;;;;;;;;4994823;28;20022;-65
2021/12/11 13:19:23;;;;;;;37.85;19.83;;;;;;;;;;4993216;28;20085;-62
2021/12/11 13:21:51;;;;;;;18.77;10.23;;;;;;;;;;5002028;28;20129;-63
2021/12/11 13:24:17;;;;;;;19.13;11.20;;;;;;;;;;4999131;28;20045;-63
2021/12/11 13:26:45;;;;;;;28.38;14.63;;;;;;;;;;5001119;28;20022;-62
2021/12/11 13:29:15;;;;;;;57.58;26.83;;;;;;;;;;5002078;28;20467;-65
2021/12/11 13:32:00;;;;;;;58.00;27.20;;;;;;;;;;5002375;28;20032;-63
2021/12/11 13:34:36;;;;;;;103.10;47.45;;;;;;;;;;5002639;28;20070;-62
2021/12/11 13:37:05;;;;;;;27.17;12.95;;;;;;;;;;5003038;28;20030;-62
2021/12/11 13:39:31;;;;;;;32.25;16.00;;;;;;;;;;5003174;28;20089;-64
2021/12/11 13:42:01;;;;;;;96.75;43.35;;;;;;;;;;5005387;28;20036;-63
2021/12/11 13:44:35;;;;;;;34.08;18.10;;;;;;;;;;5003851;28;20489;-62
2021/12/11 13:47:03;;;;;;;21.73;11.63;;;;;;;;;;5003312;28;20022;-62
2021/12/11 13:49:30;;;;;;;20.55;11.40;;;;;;;;;;5005977;28;20030;-62
2021/12/11 13:52:01;;;;;;;23.15;13.55;;;;;;;;;;4996636;28;20038;-63
2021/12/11 13:54:27;;;;;;;24.73;12.90;;;;;;;;;;5009888;28;20042;-63
2021/12/11 13:56:56;;;;;;;18.65;10.48;;;;;;;;;;5002404;28;20026;-62
2021/12/11 13:59:27;;;;;;;35.63;17.17;;;;;;;;;;5002670;28;20030;-65
2021/12/11 14:01:54;;;;;;;27.42;14.77;;;;;;;;;;5003223;28;20455;-62
2021/12/11 14:04:21;;;;;;;31.60;15.68;;;;;;;;;;5004822;28;20060;-62
2021/12/11 14:06:53;;;;;;;27.02;14.38;;;;;;;;;;5003152;28;20142;-63
2021/12/11 14:09:22;;;;;;;;;;;;;;;;;;5003177;28;20092;-67
2021/12/11 14:11:50;;;;;;;35.50;17.42;;;;;;;;;;5001568;28;19906;-63
2021/12/11 14:14:17;;;;;;;31.63;15.18;;;;;;;;;;5012930;28;20103;-63
2021/12/11 14:16:44;;;;;;;25.90;14.30;;;;;;;;;;5013918;28;20026;-63
2021/12/11 14:19:11;;;;;;;26.38;13.80;;;;;;;;;;5008050;28;20468;-63
2021/12/11 14:21:37;;;;;;;20.25;11.77;;;;;;;;;;5002154;28;20124;-62
2021/12/11 14:24:05;;;;;;;20.88;11.88;;;;;;;;;;5013564;28;20053;-62
2021/12/11 14:26:33;;;;;;;19.65;10.90;;;;;;;;;;5005243;28;20426;-63
2021/12/11 14:29:01;;;;;;;16.65;7.70;;;;;;;;;;4993194;28;20033;-64
2021/12/11 14:31:27;;;;;;;15.02;8.48;;;;;;;;;;4993807;28;20053;-62
2021/12/11 14:33:54;;;;;;;13.70;7.70;;;;;;;;;;4993616;28;20109;-61
2021/12/11 14:36:24;;;;;;;17.38;9.30;;;;;;;;;;4993432;28;20024;-62
2021/12/11 14:38:52;;;;;;;15.25;8.52;;;;;;;;;;4994032;28;20113;-61
2021/12/11 14:41:19;;;;;;;15.50;8.15;;;;;;;;;;5000668;28;20055;-60
2021/12/11 14:43:45;;;;;;;16.50;8.23;;;;;;;;;;5009360;28;20374;-62
2021/12/11 14:46:12;;;;;;;16.27;7.53;;;;;;;;;;5004200;28;20018;-60
2021/12/11 14:48:38;;;;;;;13.10;6.97;;;;;;;;;;5009989;28;20025;-62
2021/12/11 14:51:07;;;;;;;11.05;6.00;;;;;;;;;;5013235;28;20037;-61
2021/12/11 14:53:37;;;;;;;14.80;7.88;;;;;;;;;;5008469;28;20753;-61
2021/12/11 14:56:14;;;;;;;10.23;6.18;;;;;;;;;;4991612;28;20033;-62